createdAt,value
2023-01-23T00:00:56.435Z,0.00
2023-01-23T00:01:56.417Z,0.00
2023-01-23T00:02:56.395Z,0.00
2023-01-23T00:03:56.440Z,0.00
2023-01-23T00:04:56.374Z,0.00
2023-01-23T00:05:56.367Z,0.00
2023-01-23T00:06:56.377Z,0.00
2023-01-23T00:07:56.348Z,0.00
2023-01-23T00:08:56.322Z,0.00
2023-01-23T00:09:56.327Z,0.00
2023-01-23T00:10:56.329Z,0.00
2023-01-23T00:11:56.326Z,0.00
2023-01-23T00:12:56.292Z,0.00
2023-01-23T00:13:56.275Z,0.00
2023-01-23T00:14:56.264Z,0.00
2023-01-23T00:15:56.291Z,0.00
2023-01-23T00:16:56.254Z,0.00
2023-01-23T00:17:56.254Z,0.00
2023-01-23T00:18:56.215Z,0.00
2023-01-23T00:19:56.205Z,0.00
2023-01-23T00:20:56.197Z,0.00
2023-01-23T00:21:56.187Z,0.00
2023-01-23T00:22:56.175Z,0.00
2023-01-23T00:23:56.229Z,0.00
2023-01-23T00:24:56.153Z,0.00
2023-01-23T00:25:56.143Z,0.00
2023-01-23T00:26:56.137Z,0.00
2023-01-23T00:27:56.128Z,0.00
2023-01-23T00:28:56.106Z,0.00
2023-01-23T00:29:56.114Z,0.00
2023-01-23T00:30:56.146Z,0.00
2023-01-23T00:31:56.102Z,0.00
2023-01-23T00:32:56.062Z,0.00
2023-01-23T00:33:56.055Z,0.00
2023-01-23T00:34:56.061Z,0.00
2023-01-23T00:35:56.032Z,0.00
2023-01-23T00:36:56.013Z,0.00
2023-01-23T00:37:56.025Z,0.00
2023-01-23T00:38:55.991Z,0.00
2023-01-23T00:39:55.991Z,0.00
2023-01-23T00:40:56.000Z,0.00
2023-01-23T00:41:55.972Z,0.00
2023-01-23T00:42:55.960Z,0.00
2023-01-23T00:43:55.945Z,0.00
2023-01-23T00:44:55.930Z,0.00
2023-01-23T00:45:55.921Z,0.00
2023-01-23T00:46:55.920Z,0.00
2023-01-23T00:47:55.908Z,0.00
2023-01-23T00:48:55.881Z,0.00
2023-01-23T00:49:55.871Z,0.00
2023-01-23T00:50:55.897Z,0.00
2023-01-23T00:51:55.871Z,0.00
2023-01-23T00:52:55.840Z,0.00
2023-01-23T00:53:55.830Z,0.00
2023-01-23T00:54:55.821Z,0.00
2023-01-23T00:55:55.816Z,0.00
2023-01-23T00:56:55.791Z,0.00
2023-01-23T00:57:55.800Z,0.00
2023-01-23T00:58:55.770Z,0.00
2023-01-23T00:59:55.761Z,0.00
2023-01-23T01:00:55.751Z,0.00
2023-01-23T01:01:55.822Z,0.00
2023-01-23T01:02:55.755Z,0.00
2023-01-23T01:03:55.744Z,0.00
2023-01-23T01:04:55.705Z,0.00
2023-01-23T01:05:55.698Z,0.00
2023-01-23T01:06:55.695Z,0.00
2023-01-23T01:07:55.679Z,0.00
2023-01-23T01:08:55.681Z,0.00
2023-01-23T01:09:55.649Z,0.00
2023-01-23T01:10:55.640Z,0.00
2023-01-23T01:11:55.636Z,0.00
2023-01-23T01:12:55.628Z,0.00
2023-01-23T01:13:55.612Z,0.00
2023-01-23T01:14:55.677Z,0.00
2023-01-23T01:15:55.610Z,0.00
2023-01-23T01:16:55.568Z,0.00
2023-01-23T01:17:55.569Z,0.00
2023-01-23T01:18:55.548Z,0.00
2023-01-23T01:19:55.566Z,0.00
2023-01-23T01:20:55.527Z,0.00
2023-01-23T01:21:55.518Z,0.00
2023-01-23T01:22:55.498Z,0.00
2023-01-23T01:23:55.514Z,0.00
2023-01-23T01:24:55.488Z,0.00
2023-01-23T01:25:55.487Z,0.00
2023-01-23T01:26:55.463Z,0.00
2023-01-23T01:27:55.447Z,0.00
2023-01-23T01:28:55.438Z,0.00
2023-01-23T01:29:55.426Z,0.00
2023-01-23T01:30:55.597Z,0.00
2023-01-23T01:31:55.462Z,0.00
2023-01-23T01:32:55.399Z,0.00
2023-01-23T01:33:55.386Z,0.00
2023-01-23T01:34:55.372Z,0.00
2023-01-23T01:35:55.364Z,0.00
2023-01-23T01:36:55.380Z,0.00
2023-01-23T01:37:55.346Z,0.00
2023-01-23T01:38:55.332Z,0.00
2023-01-23T01:39:55.318Z,0.00
2023-01-23T01:40:55.310Z,0.00
2023-01-23T01:41:55.307Z,0.00
2023-01-23T01:42:55.320Z,0.00
2023-01-23T01:43:55.277Z,0.00
2023-01-23T01:44:55.262Z,0.00
2023-01-23T01:45:55.256Z,0.00
2023-01-23T01:46:55.301Z,0.00
2023-01-23T01:47:55.239Z,0.00
2023-01-23T01:48:55.245Z,0.00
2023-01-23T01:49:55.204Z,0.00
2023-01-23T01:50:55.227Z,0.00
2023-01-23T01:51:55.190Z,0.00
2023-01-23T01:52:55.177Z,0.00
2023-01-23T01:53:55.165Z,0.00
2023-01-23T01:54:55.171Z,0.00
2023-01-23T01:55:55.144Z,0.00
2023-01-23T01:56:55.136Z,0.00
2023-01-23T01:57:55.131Z,0.00
2023-01-23T01:58:55.109Z,0.00
2023-01-23T01:59:55.131Z,0.00
2023-01-23T02:00:55.236Z,0.00
2023-01-23T02:01:55.094Z,0.00
2023-01-23T02:02:55.062Z,0.00
2023-01-23T02:03:55.054Z,0.00
2023-01-23T02:04:55.053Z,0.00
2023-01-23T02:05:55.057Z,0.00
2023-01-23T02:06:55.025Z,0.00
2023-01-23T02:07:55.028Z,0.00
2023-01-23T02:08:54.994Z,0.00
2023-01-23T02:09:54.999Z,0.00
2023-01-23T02:10:54.972Z,0.00
2023-01-23T02:11:54.993Z,0.00
2023-01-23T02:12:54.952Z,0.00
2023-01-23T02:13:54.952Z,0.00
2023-01-23T02:14:54.932Z,0.00
2023-01-23T02:15:54.921Z,0.00
2023-01-23T02:16:54.911Z,0.00
2023-01-23T02:17:54.932Z,0.00
2023-01-23T02:18:54.884Z,0.00
2023-01-23T02:19:54.872Z,0.00
2023-01-23T02:20:54.866Z,0.00
2023-01-23T02:21:54.860Z,0.00
2023-01-23T02:22:54.842Z,0.00
2023-01-23T02:23:54.853Z,0.00
2023-01-23T02:24:54.821Z,0.00
2023-01-23T02:25:54.813Z,0.00
2023-01-23T02:26:54.798Z,0.00
2023-01-23T02:27:54.794Z,0.00
2023-01-23T02:28:54.792Z,0.00
2023-01-23T02:29:54.764Z,0.00
2023-01-23T02:30:54.785Z,0.00
2023-01-23T02:31:54.768Z,0.00
2023-01-23T02:32:54.730Z,0.00
2023-01-23T02:33:54.722Z,0.00
2023-01-23T02:34:54.733Z,0.00
2023-01-23T02:35:54.706Z,0.00
2023-01-23T02:36:54.690Z,0.00
2023-01-23T02:37:54.696Z,0.00
2023-01-23T02:38:54.696Z,0.00
2023-01-23T02:39:54.655Z,0.00
2023-01-23T02:40:54.669Z,0.00
2023-01-23T02:41:54.643Z,0.00
2023-01-23T02:42:54.618Z,0.00
2023-01-23T02:43:54.616Z,0.00
2023-01-23T02:44:54.603Z,0.00
2023-01-23T02:45:54.624Z,0.00
2023-01-23T02:46:54.591Z,0.00
2023-01-23T02:47:54.569Z,0.00
2023-01-23T02:48:54.549Z,0.00
2023-01-23T02:49:54.558Z,0.00
2023-01-23T02:50:54.556Z,0.00
2023-01-23T02:51:54.523Z,0.00
2023-01-23T02:52:54.540Z,0.00
2023-01-23T02:53:54.509Z,0.00
2023-01-23T02:54:54.488Z,0.00
2023-01-23T02:55:54.478Z,0.00
2023-01-23T02:56:54.476Z,0.00
2023-01-23T02:57:54.462Z,0.00
2023-01-23T02:58:54.458Z,0.00
2023-01-23T02:59:54.439Z,0.00
2023-01-23T03:00:54.439Z,0.00
2023-01-23T03:01:54.435Z,0.00
2023-01-23T03:02:54.396Z,0.00
2023-01-23T03:03:54.408Z,0.00
2023-01-23T03:04:54.382Z,0.00
2023-01-23T03:05:54.377Z,0.00
2023-01-23T03:06:54.358Z,0.00
2023-01-23T03:07:54.346Z,0.00
2023-01-23T03:08:54.327Z,0.00
2023-01-23T03:09:54.345Z,0.00
2023-01-23T03:10:54.317Z,0.00
2023-01-23T03:11:54.307Z,0.00
2023-01-23T03:12:54.289Z,0.00
2023-01-23T03:13:54.276Z,0.00
2023-01-23T03:14:54.264Z,0.00
2023-01-23T03:15:54.266Z,0.00
2023-01-23T03:16:54.283Z,0.00
2023-01-23T03:17:54.237Z,0.00
2023-01-23T03:18:55.116Z,0.00
2023-01-23T03:19:54.210Z,0.00
2023-01-23T03:20:54.230Z,0.00
2023-01-23T03:21:54.186Z,0.00
2023-01-23T03:22:54.175Z,0.00
2023-01-23T03:23:54.175Z,0.00
2023-01-23T03:24:54.163Z,0.00
2023-01-23T03:25:54.145Z,0.00
2023-01-23T03:26:54.154Z,0.00
2023-01-23T03:27:54.125Z,0.00
2023-01-23T03:28:54.113Z,0.00
2023-01-23T03:29:54.106Z,0.00
2023-01-23T03:30:54.152Z,0.00
2023-01-23T03:31:54.175Z,0.00
2023-01-23T03:32:54.084Z,0.00
2023-01-23T03:33:54.065Z,0.00
2023-01-23T03:34:54.044Z,0.00
2023-01-23T03:35:54.057Z,0.00
2023-01-23T03:36:54.041Z,0.00
2023-01-23T03:37:54.013Z,0.00
2023-01-23T03:38:54.054Z,0.00
2023-01-23T03:39:53.991Z,0.00
2023-01-23T03:40:53.984Z,0.00
2023-01-23T03:41:53.983Z,0.00
2023-01-23T03:42:53.961Z,0.00
2023-01-23T03:43:53.947Z,0.00
2023-01-23T03:44:53.953Z,0.00
2023-01-23T03:45:53.967Z,0.00
2023-01-23T03:46:53.914Z,0.00
2023-01-23T03:47:53.906Z,0.00
2023-01-23T03:48:53.896Z,0.00
2023-01-23T03:49:53.903Z,0.00
2023-01-23T03:50:53.925Z,0.00
2023-01-23T03:51:53.873Z,0.00
2023-01-23T03:52:53.852Z,0.00
2023-01-23T03:53:53.837Z,0.00
2023-01-23T03:54:53.845Z,0.00
2023-01-23T03:55:53.844Z,0.00
2023-01-23T03:56:53.838Z,0.00
2023-01-23T03:57:53.795Z,0.00
2023-01-23T03:58:53.785Z,0.00
2023-01-23T03:59:53.772Z,0.00
2023-01-23T04:00:53.804Z,0.00
2023-01-23T04:01:53.793Z,0.00
2023-01-23T04:02:53.775Z,0.00
2023-01-23T04:03:53.741Z,0.00
2023-01-23T04:04:53.727Z,0.00
2023-01-23T04:05:53.702Z,0.00
2023-01-23T04:06:53.703Z,0.00
2023-01-23T04:07:53.733Z,0.00
2023-01-23T04:08:53.672Z,0.00
2023-01-23T04:09:53.661Z,0.00
2023-01-23T04:10:53.650Z,0.00
2023-01-23T04:11:53.639Z,0.00
2023-01-23T04:12:53.643Z,0.00
2023-01-23T04:13:53.640Z,0.00
2023-01-23T04:14:53.607Z,0.00
2023-01-23T04:15:53.602Z,0.00
2023-01-23T04:16:53.632Z,0.00
2023-01-23T04:17:53.570Z,0.00
2023-01-23T04:18:53.560Z,0.00
2023-01-23T04:19:53.561Z,0.00
2023-01-23T04:20:53.540Z,0.00
2023-01-23T04:21:53.529Z,0.00
2023-01-23T04:22:53.520Z,0.00
2023-01-23T04:23:53.509Z,0.00
2023-01-23T04:24:53.526Z,0.00
2023-01-23T04:25:53.516Z,0.00
2023-01-23T04:26:53.485Z,0.00
2023-01-23T04:27:53.467Z,0.00
2023-01-23T04:28:53.458Z,0.00
2023-01-23T04:29:53.438Z,0.00
2023-01-23T04:30:53.559Z,0.00
2023-01-23T04:31:53.444Z,0.00
2023-01-23T04:32:53.408Z,0.00
2023-01-23T04:33:53.399Z,0.00
2023-01-23T04:34:53.391Z,0.00
2023-01-23T04:35:53.390Z,0.00
2023-01-23T04:36:53.408Z,0.00
2023-01-23T04:37:53.351Z,0.00
2023-01-23T04:38:53.337Z,0.00
2023-01-23T04:39:53.328Z,0.00
2023-01-23T04:40:53.348Z,0.00
2023-01-23T04:41:53.307Z,0.00
2023-01-23T04:42:53.328Z,0.00
2023-01-23T04:43:53.280Z,0.00
2023-01-23T04:44:53.282Z,0.00
2023-01-23T04:45:53.304Z,0.00
2023-01-23T04:46:53.255Z,0.00
2023-01-23T04:47:53.239Z,0.00
2023-01-23T04:49:00.357Z,0.00
2023-01-23T04:49:53.219Z,0.00
2023-01-23T04:50:53.216Z,0.00
2023-01-23T04:51:53.217Z,0.00
2023-01-23T04:52:53.190Z,0.00
2023-01-23T04:53:53.184Z,0.00
2023-01-23T04:54:53.201Z,0.00
2023-01-23T04:55:53.149Z,0.00
2023-01-23T04:56:53.141Z,0.00
2023-01-23T04:57:53.128Z,0.00
2023-01-23T04:58:53.119Z,0.00
2023-01-23T04:59:53.109Z,0.00
2023-01-23T05:00:53.118Z,0.00
2023-01-23T05:01:53.081Z,0.00
2023-01-23T05:02:53.070Z,0.00
2023-01-23T05:03:53.061Z,0.00
2023-01-23T05:04:53.066Z,0.00
2023-01-23T05:05:53.057Z,0.00
2023-01-23T05:06:53.030Z,0.00
2023-01-23T05:07:53.021Z,0.00
2023-01-23T05:08:53.008Z,0.00
2023-01-23T05:09:52.999Z,0.00
2023-01-23T05:10:52.989Z,0.00
2023-01-23T05:11:52.989Z,0.00
2023-01-23T05:12:52.978Z,0.00
2023-01-23T05:13:52.951Z,0.00
2023-01-23T05:14:52.938Z,0.00
2023-01-23T05:15:52.979Z,0.00
2023-01-23T05:16:52.927Z,0.00
2023-01-23T05:17:52.929Z,0.00
2023-01-23T05:18:52.900Z,0.00
2023-01-23T05:19:52.891Z,0.00
2023-01-23T05:20:52.877Z,0.00
2023-01-23T05:21:52.867Z,0.00
2023-01-23T05:22:52.946Z,0.00
2023-01-23T05:23:52.880Z,0.00
2023-01-23T05:24:52.835Z,0.00
2023-01-23T05:25:52.821Z,0.00
2023-01-23T05:26:52.810Z,0.00
2023-01-23T05:27:52.796Z,0.00
2023-01-23T05:28:52.787Z,0.00
2023-01-23T05:29:52.803Z,0.00
2023-01-23T05:30:52.845Z,0.00
2023-01-23T05:31:52.771Z,0.00
2023-01-23T05:32:52.751Z,0.00
2023-01-23T05:33:52.741Z,0.00
2023-01-23T05:34:52.750Z,0.00
2023-01-23T05:35:52.726Z,0.00
2023-01-23T05:36:52.706Z,0.00
2023-01-23T05:37:52.755Z,0.00
2023-01-23T05:38:52.685Z,0.00
2023-01-23T05:39:52.669Z,0.00
2023-01-23T05:40:52.676Z,0.00
2023-01-23T05:41:52.646Z,0.00
2023-01-23T05:42:52.641Z,0.00
2023-01-23T05:43:52.625Z,0.00
2023-01-23T05:44:52.615Z,0.00
2023-01-23T05:45:52.624Z,0.00
2023-01-23T05:46:52.622Z,0.00
2023-01-23T05:47:52.574Z,0.00
2023-01-23T05:48:52.568Z,0.00
2023-01-23T05:49:52.555Z,0.00
2023-01-23T05:50:52.579Z,0.00
2023-01-23T05:51:52.534Z,0.00
2023-01-23T05:52:52.539Z,0.00
2023-01-23T05:53:52.513Z,0.00
2023-01-23T05:54:52.509Z,0.00
2023-01-23T05:55:52.491Z,0.00
2023-01-23T05:56:52.483Z,0.00
2023-01-23T05:57:52.489Z,0.00
2023-01-23T05:58:52.463Z,0.00
2023-01-23T05:59:52.443Z,0.00
2023-01-23T06:00:52.433Z,0.00
2023-01-23T06:01:52.433Z,0.00
2023-01-23T06:02:52.456Z,0.00
2023-01-23T06:03:52.465Z,0.00
2023-01-23T06:04:54.924Z,0.00
2023-01-23T06:05:52.373Z,0.00
2023-01-23T06:06:52.373Z,0.00
2023-01-23T06:07:52.359Z,0.00
2023-01-23T06:08:52.357Z,0.00
2023-01-23T06:09:52.354Z,0.00
2023-01-23T06:10:52.324Z,0.00
2023-01-23T06:11:52.329Z,0.00
2023-01-23T06:12:52.303Z,0.00
2023-01-23T06:13:52.302Z,0.00
2023-01-23T06:14:52.282Z,0.00
2023-01-23T06:15:52.337Z,0.00
2023-01-23T06:16:52.263Z,0.00
2023-01-23T06:17:52.275Z,0.00
2023-01-23T06:18:52.241Z,0.00
2023-01-23T06:19:52.223Z,0.00
2023-01-23T06:20:52.232Z,0.00
2023-01-23T06:21:52.201Z,0.00
2023-01-23T06:22:52.191Z,0.00
2023-01-23T06:23:52.181Z,0.00
2023-01-23T06:24:52.183Z,0.00
2023-01-23T06:25:52.159Z,0.00
2023-01-23T06:26:52.181Z,0.00
2023-01-23T06:27:54.726Z,0.00
2023-01-23T06:28:52.126Z,0.00
2023-01-23T06:29:52.111Z,0.00
2023-01-23T06:30:52.162Z,0.00
2023-01-23T06:31:52.151Z,0.00
2023-01-23T06:32:52.101Z,0.00
2023-01-23T06:33:52.075Z,0.00
2023-01-23T06:34:52.096Z,0.00
2023-01-23T06:35:52.051Z,0.00
2023-01-23T06:36:52.058Z,0.00
2023-01-23T06:37:52.045Z,4.00
2023-01-23T06:38:52.033Z,4.00
2023-01-23T06:39:52.007Z,4.00
2023-01-23T06:40:52.003Z,4.00
2023-01-23T06:41:52.006Z,4.00
2023-01-23T06:42:51.970Z,8.00
2023-01-23T06:43:51.949Z,4.00
2023-01-23T06:44:52.047Z,8.00
2023-01-23T06:45:51.942Z,8.00
2023-01-23T06:46:51.933Z,8.00
2023-01-23T06:47:51.909Z,12.00
2023-01-23T06:48:51.910Z,12.00
2023-01-23T06:49:51.890Z,16.00
2023-01-23T06:50:51.940Z,20.00
2023-01-23T06:51:51.876Z,20.00
2023-01-23T06:52:51.872Z,24.00
2023-01-23T06:53:51.860Z,28.00
2023-01-23T06:54:51.839Z,32.00
2023-01-23T06:55:51.850Z,40.00
2023-01-23T06:56:51.818Z,44.00
2023-01-23T06:57:51.804Z,56.00
2023-01-23T06:58:51.802Z,68.00
2023-01-23T06:59:51.779Z,76.00
2023-01-23T07:00:51.769Z,92.00
2023-01-23T07:01:51.797Z,104.00
2023-01-23T07:02:51.794Z,120.00
2023-01-23T07:03:51.812Z,136.00
2023-01-23T07:04:51.739Z,152.00
2023-01-23T07:05:51.716Z,168.00
2023-01-23T07:06:51.707Z,188.00
2023-01-23T07:07:51.707Z,208.00
2023-01-23T07:08:51.692Z,228.00
2023-01-23T07:09:51.671Z,252.00
2023-01-23T07:10:51.666Z,272.00
2023-01-23T07:11:51.648Z,300.00
2023-01-23T07:12:51.656Z,324.00
2023-01-23T07:13:51.640Z,352.00
2023-01-23T07:14:51.616Z,380.00
2023-01-23T07:15:51.632Z,412.00
2023-01-23T07:16:51.596Z,448.00
2023-01-23T07:17:51.588Z,484.00
2023-01-23T07:18:51.597Z,516.00
2023-01-23T07:19:51.559Z,552.00
2023-01-23T07:20:51.570Z,592.00
2023-01-23T07:21:51.537Z,636.00
2023-01-23T07:22:51.530Z,684.00
2023-01-23T07:23:51.528Z,728.00
2023-01-23T07:24:51.527Z,764.00
2023-01-23T07:25:51.496Z,808.00
2023-01-23T07:26:51.485Z,860.00
2023-01-23T07:27:51.474Z,916.00
2023-01-23T07:28:51.468Z,972.00
2023-01-23T07:29:51.456Z,1020.00
2023-01-23T07:30:51.505Z,1072.00
2023-01-23T07:31:51.475Z,1124.00
2023-01-23T07:32:51.445Z,1180.00
2023-01-23T07:33:51.408Z,1244.00
2023-01-23T07:34:51.396Z,1304.00
2023-01-23T07:35:51.385Z,1364.00
2023-01-23T07:36:51.385Z,1416.00
2023-01-23T07:37:51.364Z,1460.00
2023-01-23T07:38:51.387Z,1508.00
2023-01-23T07:39:51.350Z,1552.00
2023-01-23T07:40:51.333Z,1596.00
2023-01-23T07:41:51.343Z,1660.00
2023-01-23T07:42:51.307Z,1724.00
2023-01-23T07:43:51.293Z,1792.00
2023-01-23T07:44:51.291Z,1864.00
2023-01-23T07:45:51.272Z,2040.00
2023-01-23T07:46:51.281Z,2196.00
2023-01-23T07:47:51.316Z,2352.00
2023-01-23T07:48:51.234Z,2892.00
2023-01-23T07:49:51.240Z,3048.00
2023-01-23T07:50:51.276Z,3116.00
2023-01-23T07:51:51.355Z,3376.00
2023-01-23T07:52:51.196Z,3504.00
2023-01-23T07:53:51.239Z,3620.00
2023-01-23T07:54:51.172Z,3772.00
2023-01-23T07:55:51.161Z,3964.00
2023-01-23T07:56:51.162Z,4072.00
2023-01-23T07:57:51.143Z,4452.00
2023-01-23T07:58:51.143Z,4768.00
2023-01-23T07:59:51.124Z,4772.00
2023-01-23T08:00:51.122Z,4684.00
2023-01-23T08:01:51.099Z,4632.00
2023-01-23T08:02:51.081Z,4184.00
2023-01-23T08:03:51.098Z,4388.00
2023-01-23T08:04:51.091Z,4972.00
2023-01-23T08:05:51.049Z,5024.00
2023-01-23T08:06:51.051Z,5344.00
2023-01-23T08:07:53.817Z,5708.00
2023-01-23T08:08:52.029Z,5904.00
2023-01-23T08:09:51.011Z,5968.00
2023-01-23T08:10:51.009Z,6064.00
2023-01-23T08:11:51.002Z,6208.00
2023-01-23T08:12:50.975Z,6324.00
2023-01-23T08:13:50.988Z,6468.00
2023-01-23T08:14:50.954Z,6668.00
2023-01-23T08:15:50.961Z,6900.00
2023-01-23T08:16:50.945Z,7048.00
2023-01-23T08:17:50.933Z,7136.00
2023-01-23T08:18:50.919Z,7264.00
2023-01-23T08:19:50.920Z,7360.00
2023-01-23T08:20:50.896Z,7308.00
2023-01-23T08:21:50.899Z,7200.00
2023-01-23T08:22:50.864Z,7260.00
2023-01-23T08:23:50.852Z,7292.00
2023-01-23T08:24:50.831Z,7476.00
2023-01-23T08:25:50.854Z,7656.00
2023-01-23T08:26:50.839Z,7576.00
2023-01-23T08:27:50.812Z,7488.00
2023-01-23T08:28:50.793Z,6484.00
2023-01-23T08:29:50.783Z,5000.00
2023-01-23T08:30:50.813Z,7468.00
2023-01-23T08:31:50.783Z,7784.00
2023-01-23T08:32:50.761Z,7888.00
2023-01-23T08:33:50.738Z,7992.00
2023-01-23T08:34:50.739Z,7848.00
2023-01-23T08:35:50.730Z,7584.00
2023-01-23T08:36:50.716Z,5260.00
2023-01-23T08:37:50.718Z,8384.00
2023-01-23T08:38:50.680Z,9268.00
2023-01-23T08:39:50.668Z,7808.00
2023-01-23T08:40:50.658Z,5524.00
2023-01-23T08:41:50.668Z,5876.00
2023-01-23T08:42:50.637Z,7232.00
2023-01-23T08:43:50.641Z,5608.00
2023-01-23T08:44:50.724Z,10212.00
2023-01-23T08:45:50.640Z,10144.00
2023-01-23T08:46:50.589Z,7348.00
2023-01-23T08:47:50.598Z,8440.00
2023-01-23T08:48:50.611Z,6244.00
2023-01-23T08:49:50.583Z,5704.00
2023-01-23T08:50:50.572Z,4932.00
2023-01-23T08:51:50.533Z,5020.00
2023-01-23T08:52:50.532Z,5444.00
2023-01-23T08:53:50.524Z,5376.00
2023-01-23T08:54:50.537Z,5388.00
2023-01-23T08:55:50.488Z,5100.00
2023-01-23T08:56:50.478Z,4924.00
2023-01-23T08:57:50.475Z,4860.00
2023-01-23T08:58:50.473Z,5080.00
2023-01-23T08:59:50.471Z,5632.00
2023-01-23T09:00:50.460Z,6164.00
2023-01-23T09:01:50.476Z,6520.00
2023-01-23T09:02:50.414Z,6644.00
2023-01-23T09:03:50.400Z,6384.00
2023-01-23T09:04:50.394Z,6200.00
2023-01-23T09:05:50.397Z,6500.00
2023-01-23T09:06:50.439Z,7156.00
2023-01-23T09:07:50.356Z,7780.00
2023-01-23T09:08:50.346Z,8420.00
2023-01-23T09:09:50.349Z,8928.00
2023-01-23T09:10:50.352Z,9684.00
2023-01-23T09:11:50.316Z,9320.00
2023-01-23T09:12:50.312Z,9540.00
2023-01-23T09:13:52.308Z,11056.00
2023-01-23T09:14:50.283Z,9888.00
2023-01-23T09:15:50.275Z,9936.00
2023-01-23T09:16:50.378Z,9708.00
2023-01-23T09:17:50.256Z,9004.00
2023-01-23T09:18:50.245Z,12268.00
2023-01-23T09:19:50.229Z,16864.00
2023-01-23T09:20:50.206Z,16896.00
2023-01-23T09:21:50.227Z,14180.00
2023-01-23T09:22:50.209Z,13324.00
2023-01-23T09:23:50.187Z,13192.00
2023-01-23T09:24:50.172Z,11224.00
2023-01-23T09:25:50.156Z,16320.00
2023-01-23T09:26:50.146Z,11476.00
2023-01-23T09:27:50.146Z,9588.00
2023-01-23T09:28:50.127Z,8160.00
2023-01-23T09:29:50.115Z,7776.00
2023-01-23T09:30:50.113Z,9904.00
2023-01-23T09:31:50.167Z,7952.00
2023-01-23T09:32:50.136Z,11244.00
2023-01-23T09:33:50.098Z,9128.00
2023-01-23T09:34:50.046Z,9452.00
2023-01-23T09:35:50.047Z,9664.00
2023-01-23T09:36:50.031Z,10216.00
2023-01-23T09:37:50.017Z,11104.00
2023-01-23T09:38:50.036Z,10116.00
2023-01-23T09:39:49.997Z,11640.00
2023-01-23T09:40:49.995Z,9456.00
2023-01-23T09:41:50.000Z,9088.00
2023-01-23T09:42:49.961Z,8540.00
2023-01-23T09:43:49.963Z,8580.00
2023-01-23T09:44:49.967Z,8212.00
2023-01-23T09:45:49.970Z,7316.00
2023-01-23T09:46:49.915Z,6496.00
2023-01-23T09:47:51.487Z,5896.00
2023-01-23T09:48:49.909Z,6076.00
2023-01-23T09:49:49.886Z,6724.00
2023-01-23T09:50:49.918Z,7180.00
2023-01-23T09:51:49.855Z,7480.00
2023-01-23T09:52:49.879Z,7484.00
2023-01-23T09:53:49.837Z,7584.00
2023-01-23T09:54:49.824Z,7676.00
2023-01-23T09:55:49.834Z,7488.00
2023-01-23T09:56:49.806Z,7140.00
2023-01-23T09:57:49.795Z,7580.00
2023-01-23T09:58:49.774Z,8264.00
2023-01-23T09:59:59.907Z,8256.00
2023-01-23T10:00:50.793Z,7652.00
2023-01-23T10:01:49.754Z,7420.00
2023-01-23T10:02:49.886Z,7240.00
2023-01-23T10:03:49.725Z,7560.00
2023-01-23T10:04:49.726Z,8092.00
2023-01-23T10:05:49.724Z,8284.00
2023-01-23T10:06:49.717Z,8336.00
2023-01-23T10:07:49.698Z,8308.00
2023-01-23T10:08:49.666Z,8328.00
2023-01-23T10:09:49.667Z,8284.00
2023-01-23T10:10:49.643Z,8848.00
2023-01-23T10:11:49.643Z,8992.00
2023-01-23T10:12:49.647Z,9160.00
2023-01-23T10:13:49.620Z,9336.00
2023-01-23T10:14:49.604Z,9756.00
2023-01-23T10:15:49.594Z,10336.00
2023-01-23T10:16:51.014Z,9936.00
2023-01-23T10:17:49.597Z,8868.00
2023-01-23T10:18:49.565Z,8840.00
2023-01-23T10:19:49.553Z,8316.00
2023-01-23T10:20:49.537Z,7916.00
2023-01-23T10:21:49.540Z,7732.00
2023-01-23T10:22:49.518Z,6416.00
2023-01-23T10:23:49.537Z,6792.00
2023-01-23T10:24:49.504Z,6864.00
2023-01-23T10:25:49.486Z,6824.00
2023-01-23T10:26:49.475Z,7416.00
2023-01-23T10:27:49.464Z,7952.00
2023-01-23T10:28:49.488Z,8432.00
2023-01-23T10:29:49.434Z,8168.00
2023-01-23T10:30:49.543Z,8252.00
2023-01-23T10:31:49.445Z,7956.00
2023-01-23T10:32:49.441Z,9604.00
2023-01-23T10:33:49.433Z,11100.00
2023-01-23T10:34:49.396Z,10780.00
2023-01-23T10:35:49.373Z,10344.00
2023-01-23T10:36:54.758Z,9440.00
2023-01-23T10:37:50.353Z,8624.00
2023-01-23T10:38:49.337Z,7540.00
2023-01-23T10:39:49.344Z,7232.00
2023-01-23T10:40:49.324Z,7156.00
2023-01-23T10:41:54.397Z,7048.00
2023-01-23T10:42:50.291Z,7088.00
2023-01-23T10:43:49.297Z,7772.00
2023-01-23T10:44:49.261Z,9628.00
2023-01-23T10:45:49.344Z,9512.00
2023-01-23T10:46:49.245Z,9476.00
2023-01-23T10:47:54.538Z,9368.00
2023-01-23T10:48:50.227Z,9024.00
2023-01-23T10:49:49.219Z,8240.00
2023-01-23T10:50:49.303Z,7856.00
2023-01-23T10:51:49.194Z,7840.00
2023-01-23T10:52:49.193Z,8036.00
2023-01-23T10:53:57.933Z,8612.00
2023-01-23T10:54:49.182Z,9104.00
2023-01-23T10:55:49.164Z,9108.00
2023-01-23T10:56:49.164Z,9120.00
2023-01-23T10:57:49.273Z,9708.00
2023-01-23T10:58:49.113Z,9412.00
2023-01-23T10:59:49.103Z,9864.00
2023-01-23T11:00:49.094Z,9680.00
2023-01-23T11:01:57.343Z,9516.00
2023-01-23T11:02:50.115Z,9380.00
2023-01-23T11:03:49.060Z,9536.00
2023-01-23T11:04:49.076Z,9412.00
2023-01-23T11:05:52.935Z,8060.00
2023-01-23T11:06:49.022Z,7848.00
2023-01-23T11:07:49.059Z,7464.00
2023-01-23T11:08:49.002Z,6700.00
2023-01-23T11:09:48.990Z,6432.00
2023-01-23T11:10:48.976Z,6456.00
2023-01-23T11:11:48.984Z,6988.00
2023-01-23T11:12:48.967Z,7268.00
2023-01-23T11:13:49.012Z,6272.00
2023-01-23T11:14:48.991Z,5560.00
2023-01-23T11:15:48.995Z,5568.00
2023-01-23T11:16:48.901Z,5456.00
2023-01-23T11:17:48.902Z,5384.00
2023-01-23T11:18:48.881Z,5460.00
2023-01-23T11:19:48.902Z,5388.00
2023-01-23T11:20:48.903Z,5480.00
2023-01-23T11:21:48.894Z,6160.00
2023-01-23T11:22:48.841Z,5752.00
2023-01-23T11:23:48.841Z,5540.00
2023-01-23T11:24:48.810Z,5724.00
2023-01-23T11:25:48.829Z,5936.00
2023-01-23T11:26:48.820Z,6140.00
2023-01-23T11:27:48.804Z,6308.00
2023-01-23T11:28:48.788Z,6276.00
2023-01-23T11:29:48.769Z,6624.00
2023-01-23T11:30:48.831Z,6416.00
2023-01-23T11:31:48.990Z,6172.00
2023-01-23T11:32:48.734Z,6276.00
2023-01-23T11:33:48.726Z,6340.00
2023-01-23T11:34:48.700Z,6756.00
2023-01-23T11:35:48.697Z,7352.00
2023-01-23T11:36:48.744Z,7012.00
2023-01-23T11:37:48.721Z,7480.00
2023-01-23T11:38:52.859Z,7320.00
2023-01-23T11:39:48.655Z,7196.00
2023-01-23T11:40:48.653Z,6884.00
2023-01-23T11:41:48.634Z,6524.00
2023-01-23T11:42:48.623Z,6660.00
2023-01-23T11:43:48.639Z,6924.00
2023-01-23T11:44:48.593Z,6216.00
2023-01-23T11:45:48.681Z,5980.00
2023-01-23T11:46:48.576Z,5536.00
2023-01-23T11:47:48.559Z,5660.00
2023-01-23T11:48:48.579Z,5544.00
2023-01-23T11:49:50.147Z,5356.00
2023-01-23T11:50:55.331Z,4420.00
2023-01-23T11:51:49.518Z,4552.00
2023-01-23T11:52:48.499Z,5064.00
2023-01-23T11:53:48.502Z,5092.00
2023-01-23T11:54:48.499Z,5012.00
2023-01-23T11:55:48.481Z,4936.00
2023-01-23T11:56:48.473Z,4688.00
2023-01-23T11:57:48.466Z,4432.00
2023-01-23T11:58:50.358Z,4420.00
2023-01-23T11:59:48.440Z,4624.00
2023-01-23T12:00:48.412Z,4732.00
2023-01-23T12:02:02.104Z,4844.00
2023-01-23T12:02:49.425Z,4772.00
2023-01-23T12:03:48.416Z,4844.00
2023-01-23T12:04:48.370Z,4828.00
2023-01-23T12:05:48.369Z,4828.00
2023-01-23T12:06:48.363Z,4808.00
2023-01-23T12:07:48.347Z,4796.00
2023-01-23T12:08:48.328Z,4792.00
2023-01-23T12:09:48.309Z,4792.00
2023-01-23T12:10:48.313Z,4772.00
2023-01-23T12:11:48.302Z,4752.00
2023-01-23T12:12:48.305Z,4748.00
2023-01-23T12:13:48.268Z,4728.00
2023-01-23T12:14:48.260Z,4724.00
2023-01-23T12:15:48.337Z,4708.00
2023-01-23T12:16:48.277Z,4696.00
2023-01-23T12:17:48.228Z,4684.00
2023-01-23T12:18:48.214Z,4672.00
2023-01-23T12:19:48.206Z,4676.00
2023-01-23T12:20:48.497Z,4664.00
2023-01-23T12:21:48.178Z,4624.00
2023-01-23T12:22:48.189Z,4624.00
2023-01-23T12:23:48.163Z,4628.00
2023-01-23T12:24:48.148Z,4612.00
2023-01-23T12:25:48.145Z,4616.00
2023-01-23T12:26:48.128Z,4620.00
2023-01-23T12:27:48.151Z,4624.00
2023-01-23T12:28:48.120Z,4624.00
2023-01-23T12:29:48.106Z,4624.00
2023-01-23T12:30:48.090Z,4612.00
2023-01-23T12:31:48.264Z,4600.00
2023-01-23T12:32:48.066Z,4580.00
2023-01-23T12:33:48.041Z,4572.00
2023-01-23T12:34:48.080Z,4552.00
2023-01-23T12:35:48.024Z,4504.00
2023-01-23T12:37:06.215Z,4536.00
2023-01-23T12:37:48.999Z,4548.00
2023-01-23T12:38:47.994Z,4532.00
2023-01-23T12:39:48.018Z,4540.00
2023-01-23T12:40:47.966Z,4596.00
2023-01-23T12:41:47.946Z,4676.00
2023-01-23T12:42:47.938Z,4644.00
2023-01-23T12:43:47.941Z,4616.00